Sligo, Louisiana
Current Conditions -  °F | °C
As of 9:58 PM on Tuesday 21 Oct 2014 (Local Time) from KBAD Reporting Station
Clear Clear  
Wind Chill: 63°   Ceiling: Unl
Heat Index: 63°   Visibility: 10mi
Dew Point: 61°   Wind: 2mph
Humidity: 94%   Direction: 40°NE
Pressure: 30.07"   Gusts: NA
Location:  32.5391°N, 93.5257°W
Report Text: KBAD 220258Z AUTO 04002KT 10SM CLR 17/16 A3007 RMK AO2 SLP185 T01700160 52015
Loading
Personal Weather Stations






























Interactive Weather Map
Tropical Storm Tracking
New forecast layout! Learn more

10-Day Weather Forecast

Advertisements
Track Severe Weather on mobile